KTVC/TVC METAR and TAF weather

Enter ICAO airport designator
Station Type Date Time Source
KTVC METAR 2022/11/30 17:35 UTC NOAA

KTVC 301735Z 26016G24KT 5SM -SN BKN026 OVC034 M01/M07 A2966 RMK AO2 PK WND 27032/1714 P0000 T10111072


Station Type Date Time Source
KTVC Decoded METAR 2022/11/30 17:35 UTC NOAA

CHERRY CAPITAL AIRPORT, MI, United States (KTVC) 44-44N 085-34W 190M
Nov 30, 2022 - 12:35 PM EST / 2022.11.30 1735 UTC
Wind: from the W (260 degrees) at 18 MPH (16 KT) gusting to 28 MPH (24 KT):0
Visibility: 5 mile(s):0
Sky conditions: overcast
Weather: light snow
Precipitation last hour: A trace
Temperature: 30.0 F (-1.1 C)
Windchill: 17 F (-8 C):1
Dew Point: 19.0 F (-7.2 C)
Relative Humidity: 63%
Pressure (altimeter): 29.66 in. Hg (1004 hPa)
ob: KTVC 301735Z 26016G24KT 5SM -SN BKN026 OVC034 M01/M07 A2966 RMK AO2 PK WND 27032/1714 P0000 T10111072
cycle: 17

Station Type Date Time Source
KTVC TAF 2022/11/30 18:39 UTC NOAA

TAF KTVC 301737Z 3018/0118 26015G30KT 2SM -SN BKN015 OVC030
TEMPO 3018/3022 1SM -SN BLSN BKN010 OVC025
FM010200 27025G40KT 4SM -SN BLSN BKN020 OVC030
FM010900 30015G35KT 6SM -SN BLSN SCT025 OVC040

Example: see airport list